createdAt,value
2022-11-29T00:02:02.528Z,9.54
2022-11-29T00:04:32.286Z,9.52
2022-11-29T00:07:02.020Z,9.52
2022-11-29T00:09:31.765Z,9.53
2022-11-29T00:12:13.920Z,9.51
2022-11-29T00:14:44.567Z,9.50
2022-11-29T00:17:17.035Z,9.49
2022-11-29T00:19:46.855Z,9.48
2022-11-29T00:22:16.551Z,9.49
2022-11-29T00:24:46.454Z,9.47
2022-11-29T00:27:16.328Z,9.46
2022-11-29T00:29:47.186Z,9.43
2022-11-29T00:32:19.863Z,9.42
2022-11-29T00:34:49.552Z,9.38
2022-11-29T00:37:19.279Z,9.36
2022-11-29T00:39:48.984Z,9.35
2022-11-29T00:42:18.664Z,9.35
2022-11-29T00:44:48.377Z,9.35
2022-11-29T00:47:20.823Z,9.36
2022-11-29T00:49:50.582Z,9.38
2022-11-29T00:52:20.279Z,9.41
2022-11-29T00:54:50.028Z,9.42
2022-11-29T00:57:19.739Z,9.41
2022-11-29T00:59:49.457Z,9.38
2022-11-29T01:02:21.864Z,9.37
2022-11-29T01:04:51.609Z,9.35
2022-11-29T01:07:21.389Z,9.35
2022-11-29T01:09:51.370Z,9.32
2022-11-29T01:12:21.084Z,9.31
2022-11-29T01:14:50.904Z,9.25
2022-11-29T01:17:23.311Z,9.22
2022-11-29T01:19:53.024Z,9.19
2022-11-29T01:22:22.784Z,9.18
2022-11-29T01:24:53.883Z,9.17
2022-11-29T01:27:23.627Z,9.15
2022-11-29T01:29:53.336Z,9.10
2022-11-29T01:32:25.735Z,9.06
2022-11-29T01:34:55.567Z,9.03
2022-11-29T01:37:25.323Z,9.00
2022-11-29T01:39:55.072Z,8.97
2022-11-29T01:42:24.888Z,8.96
2022-11-29T01:45:16.516Z,8.95
2022-11-29T01:47:50.008Z,8.94
2022-11-29T01:50:20.341Z,8.90
2022-11-29T01:52:51.000Z,8.88
2022-11-29T01:55:21.543Z,8.86
2022-11-29T01:57:52.113Z,8.85
2022-11-29T02:00:22.815Z,8.85
2022-11-29T02:03:00.159Z,8.85
2022-11-29T02:05:30.856Z,8.85
2022-11-29T02:08:02.822Z,8.86
2022-11-29T02:10:47.293Z,8.85
2022-11-29T02:13:26.735Z,8.83
2022-11-29T02:16:06.797Z,8.82
2022-11-29T02:18:51.288Z,8.81
2022-11-29T02:21:32.525Z,8.79
2022-11-29T02:24:18.340Z,8.77
2022-11-29T02:27:09.875Z,8.73
2022-11-29T02:30:11.994Z,8.69
2022-11-29T02:33:20.514Z,8.66
2022-11-29T02:36:26.587Z,8.62
2022-11-29T02:39:31.759Z,8.61
2022-11-29T02:42:55.724Z,8.62
2022-11-29T02:45:53.485Z,8.62
2022-11-29T02:48:50.974Z,8.59
2022-11-29T02:51:28.761Z,8.59
2022-11-29T02:54:06.280Z,8.59
2022-11-29T02:56:43.569Z,8.60
2022-11-29T02:59:21.458Z,8.61
2022-11-29T03:01:58.775Z,8.61
2022-11-29T03:04:36.634Z,8.62
2022-11-29T03:07:16.389Z,8.63
2022-11-29T03:09:52.265Z,8.64
2022-11-29T03:12:29.952Z,8.66
2022-11-29T03:15:06.718Z,8.69
2022-11-29T03:17:49.349Z,8.71
2022-11-29T03:20:31.532Z,8.72
2022-11-29T03:23:19.089Z,8.73
2022-11-29T03:25:55.304Z,8.75
2022-11-29T03:28:33.235Z,8.74
2022-11-29T03:31:10.151Z,8.75
2022-11-29T03:33:49.008Z,8.74
2022-11-29T03:36:30.528Z,8.73
2022-11-29T03:39:07.410Z,8.74
2022-11-29T03:41:44.676Z,8.74
2022-11-29T03:44:19.212Z,8.74
2022-11-29T03:46:58.932Z,8.73
2022-11-29T03:49:35.136Z,8.72
2022-11-29T03:52:13.277Z,8.72
2022-11-29T03:54:56.503Z,8.71
2022-11-29T03:57:34.896Z,8.72
2022-11-29T04:00:09.711Z,8.73
2022-11-29T04:03:09.450Z,8.75
2022-11-29T04:06:02.796Z,8.74
2022-11-29T04:09:09.596Z,8.78
2022-11-29T04:12:05.355Z,8.80
2022-11-29T04:15:10.517Z,8.81
2022-11-29T04:18:31.464Z,8.82
2022-11-29T04:21:34.313Z,8.82
2022-11-29T04:24:46.026Z,8.82
2022-11-29T04:27:48.819Z,8.82
2022-11-29T04:30:27.159Z,8.81
2022-11-29T04:33:26.778Z,8.82
2022-11-29T04:36:16.196Z,8.78
2022-11-29T04:39:12.618Z,8.74
2022-11-29T04:42:07.264Z,8.68
2022-11-29T04:44:53.251Z,8.62
2022-11-29T04:47:53.936Z,8.59
2022-11-29T04:50:36.132Z,8.57
2022-11-29T04:53:38.992Z,8.57
2022-11-29T04:56:18.038Z,8.56
2022-11-29T04:58:57.898Z,8.54
2022-11-29T05:01:35.302Z,8.49
2022-11-29T05:04:17.369Z,8.48
2022-11-29T05:06:55.952Z,8.45
2022-11-29T05:09:35.044Z,8.44
2022-11-29T05:12:15.499Z,8.45
2022-11-29T05:14:58.168Z,8.45
2022-11-29T05:17:35.532Z,8.45
2022-11-29T05:20:25.958Z,8.46
2022-11-29T05:23:15.307Z,8.45
2022-11-29T05:25:53.264Z,8.44
2022-11-29T05:28:28.564Z,8.43
2022-11-29T05:31:21.865Z,8.45
2022-11-29T05:34:24.569Z,8.44
2022-11-29T05:37:03.760Z,8.43
2022-11-29T05:39:46.158Z,8.45
2022-11-29T05:42:41.274Z,8.47
2022-11-29T05:45:18.163Z,8.45
2022-11-29T05:47:55.479Z,8.47
2022-11-29T05:50:33.628Z,8.45
2022-11-29T05:53:19.234Z,8.44
2022-11-29T05:55:58.556Z,8.42
2022-11-29T05:58:35.536Z,8.40
2022-11-29T06:01:17.228Z,8.40
2022-11-29T06:03:54.634Z,8.37
2022-11-29T06:06:34.201Z,8.38
2022-11-29T06:09:19.121Z,8.40
2022-11-29T06:11:53.528Z,8.40
2022-11-29T06:14:44.632Z,8.40
2022-11-29T06:17:42.103Z,8.42
2022-11-29T06:20:44.248Z,8.46
2022-11-29T06:23:36.668Z,8.47
2022-11-29T06:26:22.884Z,8.48
2022-11-29T06:29:05.115Z,8.46
2022-11-29T06:31:39.045Z,8.44
2022-11-29T06:34:19.037Z,8.43
2022-11-29T06:36:53.810Z,8.40
2022-11-29T06:39:24.472Z,8.39
2022-11-29T06:41:56.878Z,8.38
2022-11-29T06:44:27.265Z,8.40
2022-11-29T06:47:06.413Z,8.41
2022-11-29T06:49:44.064Z,8.41
2022-11-29T06:52:25.868Z,8.41
2022-11-29T06:55:07.876Z,8.40
2022-11-29T06:57:56.767Z,8.40
2022-11-29T07:00:29.534Z,8.41
2022-11-29T07:03:18.827Z,8.44
2022-11-29T07:05:49.474Z,8.45
2022-11-29T07:08:21.664Z,8.44
2022-11-29T07:10:54.210Z,8.45
2022-11-29T07:13:27.539Z,8.47
2022-11-29T07:16:04.587Z,8.47
2022-11-29T07:18:42.696Z,8.46
2022-11-29T07:21:24.217Z,8.47
2022-11-29T07:24:03.403Z,8.45
2022-11-29T07:26:41.012Z,8.48
2022-11-29T07:29:26.448Z,8.50
2022-11-29T07:32:06.267Z,8.53
2022-11-29T07:34:43.305Z,8.56
2022-11-29T07:37:22.393Z,8.60
2022-11-29T07:40:02.656Z,8.65
2022-11-29T07:42:40.727Z,8.69
2022-11-29T07:45:21.928Z,8.74
2022-11-29T07:47:51.859Z,8.77
2022-11-29T07:50:21.765Z,8.80
2022-11-29T07:52:52.124Z,8.83
2022-11-29T07:55:24.497Z,8.87
2022-11-29T07:57:55.084Z,8.90
2022-11-29T08:00:27.903Z,8.94
2022-11-29T08:03:06.404Z,8.96
2022-11-29T08:05:41.438Z,8.98
2022-11-29T08:08:25.555Z,9.02
2022-11-29T08:10:56.824Z,9.03
2022-11-29T08:13:26.859Z,9.08
2022-11-29T08:15:59.319Z,9.12
2022-11-29T08:18:29.058Z,9.15
2022-11-29T08:20:58.769Z,9.20
2022-11-29T08:23:28.500Z,9.24
2022-11-29T08:26:02.644Z,9.29
2022-11-29T08:28:35.398Z,9.34
2022-11-29T08:31:10.739Z,9.38
2022-11-29T08:33:42.507Z,9.43
2022-11-29T08:36:14.794Z,9.47
2022-11-29T08:38:44.530Z,9.53
2022-11-29T08:41:17.100Z,9.58
2022-11-29T08:43:47.836Z,9.60
2022-11-29T08:46:20.260Z,9.65
2022-11-29T08:48:50.129Z,9.68
2022-11-29T08:51:19.960Z,9.73
2022-11-29T08:53:51.745Z,9.77
2022-11-29T08:59:12.496Z,9.88
2022-11-29T09:01:45.384Z,9.94
2022-11-29T09:04:17.289Z,9.99
2022-11-29T09:06:49.748Z,10.00
2022-11-29T09:09:20.224Z,10.00
2022-11-29T09:11:50.126Z,10.05
2022-11-29T09:14:22.616Z,10.07
2022-11-29T09:16:58.053Z,10.10
2022-11-29T09:19:27.994Z,10.16
2022-11-29T09:21:57.991Z,10.19
2022-11-29T09:24:27.890Z,10.23
2022-11-29T09:26:58.237Z,10.27
2022-11-29T09:29:28.136Z,10.28
2022-11-29T09:32:00.758Z,10.29
2022-11-29T09:34:30.724Z,10.28
2022-11-29T09:37:00.778Z,10.30
2022-11-29T09:39:30.815Z,10.32
2022-11-29T09:42:15.161Z,10.34
2022-11-29T09:44:56.967Z,10.37
2022-11-29T09:47:46.654Z,10.40
2022-11-29T09:50:29.375Z,10.43
2022-11-29T09:53:12.675Z,10.40
2022-11-29T09:55:56.147Z,10.45
2022-11-29T09:58:29.192Z,10.45
2022-11-29T10:01:03.598Z,10.46
2022-11-29T10:03:41.289Z,10.44
2022-11-29T10:06:20.452Z,10.43
2022-11-29T10:08:55.872Z,10.45
2022-11-29T10:11:31.143Z,10.43
2022-11-29T10:14:04.273Z,10.40
2022-11-29T10:16:43.438Z,10.39
2022-11-29T10:19:24.915Z,10.35
2022-11-29T10:22:02.538Z,10.34
2022-11-29T10:24:34.371Z,10.32
2022-11-29T10:27:04.545Z,10.29
2022-11-29T10:29:34.479Z,10.30
2022-11-29T10:32:10.176Z,10.31
2022-11-29T10:34:45.435Z,10.32
2022-11-29T10:37:19.605Z,10.33
2022-11-29T10:39:51.910Z,10.33
2022-11-29T10:42:36.118Z,10.28
2022-11-29T10:45:07.534Z,10.27
2022-11-29T10:47:37.337Z,10.26
2022-11-29T10:50:15.941Z,10.28
2022-11-29T10:52:45.724Z,10.28
2022-11-29T10:55:17.785Z,10.31
2022-11-29T10:58:28.621Z,10.31
2022-11-29T11:01:01.261Z,10.31
2022-11-29T11:03:40.292Z,10.31
2022-11-29T11:06:16.544Z,10.32
2022-11-29T11:08:49.820Z,10.31
2022-11-29T11:11:29.146Z,10.34
2022-11-29T11:14:04.530Z,10.33
2022-11-29T11:16:37.591Z,10.37
2022-11-29T11:19:33.176Z,10.40
2022-11-29T11:22:07.288Z,10.39
2022-11-29T11:24:40.852Z,10.44
2022-11-29T11:27:11.083Z,10.45
2022-11-29T11:29:44.215Z,10.43
2022-11-29T11:32:20.856Z,10.42
2022-11-29T11:34:55.554Z,10.40
2022-11-29T11:37:30.731Z,10.33
2022-11-29T11:40:04.220Z,10.31
2022-11-29T11:42:42.930Z,10.32
2022-11-29T11:45:34.343Z,10.31
2022-11-29T11:48:08.277Z,10.30
2022-11-29T11:50:46.440Z,10.26
2022-11-29T11:53:26.830Z,10.24
2022-11-29T11:56:00.734Z,10.18
2022-11-29T11:58:42.771Z,10.15
2022-11-29T12:01:20.985Z,10.12
2022-11-29T12:04:04.846Z,10.07
2022-11-29T12:07:51.969Z,10.01
2022-11-29T12:10:27.570Z,9.93
2022-11-29T12:13:00.431Z,9.87
2022-11-29T12:15:38.688Z,9.80
2022-11-29T12:18:13.637Z,9.77
2022-11-29T12:20:49.892Z,9.73
2022-11-29T12:26:55.913Z,9.73
2022-11-29T12:29:22.470Z,9.73
2022-11-29T12:32:07.137Z,9.71
2022-11-29T12:34:51.854Z,9.72
2022-11-29T12:37:28.705Z,9.72
2022-11-29T12:40:04.185Z,9.68
2022-11-29T12:42:48.854Z,9.60
2022-11-29T12:45:37.700Z,9.52
2022-11-29T12:48:20.005Z,9.45
2022-11-29T12:51:01.893Z,9.43
2022-11-29T12:54:00.504Z,9.42
2022-11-29T12:56:35.991Z,9.38
2022-11-29T12:59:33.782Z,9.31
2022-11-29T13:02:33.872Z,9.28
2022-11-29T13:05:13.096Z,9.22
2022-11-29T13:07:54.572Z,9.25
2022-11-29T13:10:36.320Z,9.30
2022-11-29T13:13:18.125Z,9.34
2022-11-29T13:15:58.008Z,9.38
2022-11-29T13:18:35.620Z,9.37
2022-11-29T13:21:13.585Z,9.39
2022-11-29T13:24:08.831Z,9.40
2022-11-29T13:26:40.873Z,9.41
2022-11-29T13:29:17.148Z,9.38
2022-11-29T13:31:50.400Z,9.38
2022-11-29T13:34:26.137Z,9.39
2022-11-29T13:37:08.416Z,9.37
2022-11-29T13:39:53.788Z,9.33
2022-11-29T13:42:31.787Z,9.29
2022-11-29T13:45:05.956Z,9.28
2022-11-29T13:47:54.426Z,9.31
2022-11-29T13:50:41.245Z,9.32
2022-11-29T13:53:17.781Z,9.31
2022-11-29T13:55:50.482Z,9.27
2022-11-29T13:58:37.143Z,9.27
2022-11-29T14:01:13.045Z,9.29
2022-11-29T14:03:46.562Z,9.24
2022-11-29T14:06:21.263Z,9.26
2022-11-29T14:09:21.341Z,9.25
2022-11-29T14:11:53.958Z,9.25
2022-11-29T14:14:31.576Z,9.21
2022-11-29T14:17:04.128Z,9.17
2022-11-29T14:19:38.365Z,9.17
2022-11-29T14:22:35.430Z,9.15
2022-11-29T14:25:49.310Z,9.20
2022-11-29T14:28:33.040Z,9.17
2022-11-29T14:31:04.388Z,9.19
2022-11-29T14:33:46.641Z,9.21
2022-11-29T14:36:32.748Z,9.24
2022-11-29T14:39:16.289Z,9.27
2022-11-29T14:41:58.205Z,9.25
2022-11-29T14:44:30.340Z,9.24
2022-11-29T14:47:05.919Z,9.24
2022-11-29T14:49:43.479Z,9.23
2022-11-29T14:52:25.736Z,9.19
2022-11-29T14:54:59.068Z,9.17
2022-11-29T14:58:10.096Z,9.12
2022-11-29T15:00:54.949Z,9.10
2022-11-29T15:03:33.674Z,9.10
2022-11-29T15:06:13.303Z,9.10
2022-11-29T15:08:53.589Z,9.13
2022-11-29T15:11:34.682Z,9.12
2022-11-29T15:14:08.763Z,9.09
2022-11-29T15:16:58.640Z,9.09
2022-11-29T15:19:58.852Z,9.07
2022-11-29T15:22:31.678Z,9.07
2022-11-29T15:25:22.586Z,9.05
2022-11-29T15:27:54.472Z,9.02
2022-11-29T15:30:31.921Z,9.00
2022-11-29T15:33:03.752Z,8.98
2022-11-29T15:35:35.617Z,9.00
2022-11-29T15:38:06.121Z,9.01
2022-11-29T15:40:41.089Z,9.02
2022-11-29T15:43:20.075Z,8.99
2022-11-29T15:45:51.448Z,8.99
2022-11-29T15:48:27.110Z,8.98
2022-11-29T15:51:04.459Z,8.94
2022-11-29T15:53:39.524Z,8.93
2022-11-29T15:56:18.150Z,8.90
2022-11-29T15:58:50.782Z,8.88
2022-11-29T16:01:24.246Z,8.86
2022-11-29T16:03:59.375Z,8.86
2022-11-29T16:06:36.395Z,8.88
2022-11-29T16:09:07.112Z,8.90
2022-11-29T16:11:46.411Z,8.89
2022-11-29T16:14:20.561Z,8.92
2022-11-29T16:16:52.594Z,8.91
2022-11-29T16:19:32.097Z,8.88
2022-11-29T16:22:11.846Z,8.83
2022-11-29T16:24:43.198Z,8.83
2022-11-29T16:27:16.939Z,8.82
2022-11-29T16:29:48.297Z,8.78
2022-11-29T16:32:30.503Z,8.76
2022-11-29T16:35:08.252Z,8.76
2022-11-29T16:37:43.464Z,8.77
2022-11-29T16:40:25.158Z,8.73
2022-11-29T16:43:25.421Z,8.71
2022-11-29T16:46:34.026Z,8.66
2022-11-29T16:49:06.179Z,8.65
2022-11-29T16:51:42.503Z,8.69
2022-11-29T16:54:24.642Z,8.70
2022-11-29T16:56:56.131Z,8.71
2022-11-29T16:59:30.185Z,8.75
2022-11-29T17:02:00.322Z,8.78
2022-11-29T17:04:30.241Z,8.81
2022-11-29T17:07:00.380Z,8.82
2022-11-29T17:09:34.603Z,8.84
2022-11-29T17:12:06.324Z,8.81
2022-11-29T17:14:38.922Z,8.80
2022-11-29T17:17:09.139Z,8.80
2022-11-29T17:19:38.881Z,8.77
2022-11-29T17:22:08.582Z,8.78
2022-11-29T17:24:43.557Z,8.77
2022-11-29T17:27:17.308Z,8.79
2022-11-29T17:29:52.403Z,8.81
2022-11-29T17:32:26.536Z,8.86
2022-11-29T17:34:56.784Z,8.92
2022-11-29T17:37:26.516Z,8.93
2022-11-29T17:39:56.732Z,8.95
2022-11-29T17:42:26.728Z,8.94
2022-11-29T17:44:59.027Z,8.88
2022-11-29T17:47:28.711Z,8.84
2022-11-29T17:49:58.444Z,8.81
2022-11-29T17:52:28.147Z,8.75
2022-11-29T17:54:57.812Z,8.73
2022-11-29T17:57:27.471Z,8.76
2022-11-29T17:59:59.791Z,8.77
2022-11-29T18:02:29.516Z,8.78
2022-11-29T18:04:59.225Z,8.74
2022-11-29T18:07:29.017Z,8.72
2022-11-29T18:09:58.782Z,8.70
2022-11-29T18:12:28.466Z,8.70
2022-11-29T18:15:00.767Z,8.72
2022-11-29T18:17:30.416Z,8.71
2022-11-29T18:20:00.078Z,8.73
2022-11-29T18:22:29.993Z,8.72
2022-11-29T18:25:30.085Z,8.73
2022-11-29T18:27:49.750Z,8.73
2022-11-29T18:30:22.287Z,8.73
2022-11-29T18:32:52.279Z,8.73
2022-11-29T18:35:22.259Z,8.75
2022-11-29T18:38:13.964Z,8.76
2022-11-29T18:40:41.897Z,8.75
2022-11-29T18:43:11.680Z,8.79
2022-11-29T18:45:44.052Z,8.79
2022-11-29T18:48:13.771Z,8.79
2022-11-29T18:50:44.021Z,8.79
2022-11-29T18:53:13.810Z,8.76
2022-11-29T18:55:43.608Z,8.74
2022-11-29T18:58:13.410Z,8.73
2022-11-29T19:00:45.756Z,8.68
2022-11-29T19:03:15.605Z,8.62
2022-11-29T19:05:53.378Z,8.61
2022-11-29T19:08:23.115Z,8.64
2022-11-29T19:10:52.818Z,8.68
2022-11-29T19:13:22.552Z,8.69
2022-11-29T19:15:58.018Z,8.73
2022-11-29T19:18:27.812Z,8.76
2022-11-29T19:20:57.531Z,8.76
2022-11-29T19:23:27.240Z,8.77
2022-11-29T19:25:57.092Z,8.78
2022-11-29T19:28:26.798Z,8.80
2022-11-29T19:30:59.631Z,8.81
2022-11-29T19:33:29.375Z,8.83
2022-11-29T19:35:59.065Z,8.86
2022-11-29T19:38:28.890Z,8.92
2022-11-29T19:40:58.566Z,8.97
2022-11-29T19:43:28.247Z,8.99
2022-11-29T19:46:00.666Z,9.00
2022-11-29T19:48:30.475Z,8.98
2022-11-29T19:51:02.655Z,8.96
2022-11-29T19:53:32.712Z,8.94
2022-11-29T19:56:02.615Z,8.92
2022-11-29T19:58:32.293Z,8.92
2022-11-29T20:01:09.852Z,8.91
2022-11-29T20:03:39.853Z,8.88
2022-11-29T20:06:10.999Z,8.87
2022-11-29T20:08:40.891Z,8.87
2022-11-29T20:11:12.113Z,8.87
2022-11-29T20:13:43.010Z,8.84
2022-11-29T20:16:18.352Z,8.83
2022-11-29T20:18:51.310Z,8.84
2022-11-29T20:21:23.392Z,8.87
2022-11-29T20:23:58.121Z,8.90
2022-11-29T20:26:28.724Z,8.90
2022-11-29T20:28:58.548Z,8.89
2022-11-29T20:31:31.782Z,8.87
2022-11-29T20:34:01.943Z,8.87
2022-11-29T20:36:42.891Z,8.82
2022-11-29T20:39:23.762Z,8.80
2022-11-29T20:42:10.511Z,8.77
2022-11-29T20:44:42.896Z,8.78
2022-11-29T20:47:20.264Z,8.80
2022-11-29T20:49:50.272Z,8.80
2022-11-29T20:52:35.283Z,8.82
2022-11-29T20:55:05.022Z,8.85
2022-11-29T20:57:34.978Z,8.87
2022-11-29T21:00:05.145Z,8.90
2022-11-29T21:02:37.516Z,8.91
2022-11-29T21:05:09.099Z,8.93
2022-11-29T21:07:39.017Z,8.90
2022-11-29T21:10:10.446Z,8.87
2022-11-29T21:12:40.616Z,8.91
2022-11-29T21:15:12.320Z,8.95
2022-11-29T21:17:46.155Z,8.98
2022-11-29T21:20:21.729Z,8.98
2022-11-29T21:23:17.054Z,8.99
2022-11-29T21:25:56.063Z,8.98
2022-11-29T21:28:31.058Z,8.99
2022-11-29T21:31:01.706Z,9.02
2022-11-29T21:33:34.999Z,9.03
2022-11-29T21:36:06.285Z,9.03
2022-11-29T21:38:36.480Z,9.04
2022-11-29T21:41:06.362Z,9.04
2022-11-29T21:44:04.920Z,9.07
2022-11-29T21:46:26.008Z,9.08
2022-11-29T21:49:01.655Z,9.12
2022-11-29T21:51:31.539Z,9.15
2022-11-29T21:54:01.377Z,9.18
2022-11-29T21:56:31.156Z,9.22
2022-11-29T21:59:01.022Z,9.26
2022-11-29T22:01:33.901Z,9.27
2022-11-29T22:04:06.787Z,9.30
2022-11-29T22:06:36.969Z,9.31
2022-11-29T22:09:10.776Z,9.34
2022-11-29T22:11:40.497Z,9.34
2022-11-29T22:14:18.520Z,9.34
2022-11-29T22:16:50.286Z,9.36
2022-11-29T22:19:24.444Z,9.37
2022-11-29T22:21:56.526Z,9.37
2022-11-29T22:24:28.292Z,9.33
2022-11-29T22:26:58.515Z,9.29
2022-11-29T22:29:28.609Z,9.24
2022-11-29T22:32:01.277Z,9.24
2022-11-29T22:34:33.620Z,9.24
2022-11-29T22:37:06.227Z,9.25
2022-11-29T22:39:36.058Z,9.25
2022-11-29T22:42:05.907Z,9.25
2022-11-29T22:44:35.810Z,9.28
2022-11-29T22:47:05.651Z,9.29
2022-11-29T22:49:38.123Z,9.31
2022-11-29T22:52:08.404Z,9.34
2022-11-29T22:54:38.305Z,9.34
2022-11-29T22:57:08.081Z,9.32
2022-11-29T22:59:37.848Z,9.30
2022-11-29T23:02:07.657Z,9.28
2022-11-29T23:04:40.310Z,9.28
2022-11-29T23:07:10.059Z,9.28
2022-11-29T23:09:39.824Z,9.29
2022-11-29T23:12:10.137Z,9.27
2022-11-29T23:14:40.045Z,9.29
2022-11-29T23:17:09.845Z,9.27
2022-11-29T23:19:42.273Z,9.25
2022-11-29T23:22:11.968Z,9.24
2022-11-29T23:24:42.955Z,9.23
2022-11-29T23:27:12.831Z,9.20
2022-11-29T23:29:42.648Z,9.16
2022-11-29T23:32:12.516Z,9.13
2022-11-29T23:34:45.291Z,9.09
2022-11-29T23:37:15.419Z,9.04
2022-11-29T23:39:45.155Z,8.99
2022-11-29T23:42:14.933Z,8.93
2022-11-29T23:44:45.212Z,8.87
2022-11-29T23:47:15.572Z,8.85
2022-11-29T23:49:48.409Z,8.76
2022-11-29T23:52:18.806Z,8.74
2022-11-29T23:54:48.844Z,8.69
2022-11-29T23:57:18.868Z,8.66
2022-11-29T23:59:50.342Z,8.64
